Time;durP1;ratioP1;P1;durP2;ratioP2;P2;SDS_P1;SDS_P2;PMS_P1;PMS_P2;Temp;Humidity;BMP_temperature;BMP_pressure;BME280_temperature;BME280_humidity;BME280_pressure;Samples;Min_cycle;Max_cycle;Signal;HPM_P1;HPM_P2
2023/12/29 00:01:59;;;;;;;6.88;2.83;;;;;;;9.53;97.88;100692.78;5001374;28;20048;-75
2023/12/29 00:04:27;;;;;;;9.27;2.55;;;;;;;9.54;97.82;100694.53;5001066;28;20069;-74
2023/12/29 00:06:52;;;;;;;8.40;2.50;;;;;;;9.54;97.75;100694.53;5002247;28;20046;-74
2023/12/29 00:09:21;;;;;;;8.00;2.50;;;;;;;9.50;97.81;100677.03;5002941;28;20037;-76
2023/12/29 00:11:50;;;;;;;8.23;2.60;;;;;;;9.54;97.70;100690.09;5001969;28;20397;-74
2023/12/29 00:14:16;;;;;;;6.80;2.53;;;;;;;9.55;97.85;100685.63;5000289;28;20120;-75
2023/12/29 00:16:42;;;;;;;6.30;2.70;;;;;;;9.46;98.89;100678.97;4983676;28;20117;-73
2023/12/29 00:19:07;;;;;;;7.97;3.00;;;;;;;9.50;98.35;100674.38;5001707;28;20528;-73
2023/12/29 00:21:33;;;;;;;6.38;2.33;;;;;;;9.46;98.86;100671.00;5003196;28;20045;-75
2023/12/29 00:23:58;;;;;;;5.97;2.78;;;;;;;9.48;98.42;100675.28;5001524;28;20038;-72
2023/12/29 00:26:23;;;;;;;8.52;2.90;;;;;;;9.49;98.46;100681.50;5002089;28;20334;-74
2023/12/29 00:28:49;;;;;;;8.10;2.85;;;;;;;9.48;98.67;100675.28;5001607;28;20041;-78
2023/12/29 00:31:17;;;;;;;7.57;2.90;;;;;;;9.42;98.56;100675.59;5002760;28;20034;-72
2023/12/29 00:33:43;;;;;;;7.57;2.53;;;;;;;9.55;97.52;100661.72;5001177;28;20228;-77
2023/12/29 00:36:15;;;;;;;8.35;2.60;;;;;;;9.44;98.13;100643.63;5002286;28;20183;-76
2023/12/29 00:38:40;;;;;;;9.02;2.90;;;;;;;9.49;98.52;100657.56;5001962;28;20046;-75
2023/12/29 00:41:08;;;;;;;6.78;2.45;;;;;;;9.48;98.50;100659.34;5002107;28;20452;-77
2023/12/29 00:43:34;;;;;;;8.60;2.65;;;;;;;9.51;98.12;100655.69;5002314;28;20050;-75
2023/12/29 00:46:01;;;;;;;7.85;2.58;;;;;;;9.51;98.05;100649.50;4999028;28;20472;-75
2023/12/29 00:48:27;;;;;;;8.85;2.80;;;;;;;9.53;97.60;100634.34;5001944;28;20034;-76
2023/12/29 00:50:52;;;;;;;9.60;2.67;;;;;;;9.52;97.73;100628.19;5002802;28;20061;-75
2023/12/29 00:53:17;;;;;;;6.80;2.92;;;;;;;9.51;98.41;100649.50;5001975;28;20626;-72
2023/12/29 00:55:43;;;;;;;10.30;3.30;;;;;;;9.41;99.87;100651.78;5002980;28;20064;-75
2023/12/29 00:58:08;;;;;;;9.60;2.92;;;;;;;9.25;100.00;100643.69;5002437;28;20048;-75
2023/12/29 01:00:33;;;;;;;7.50;2.67;;;;;;;9.15;100.00;100645.06;5002340;28;20368;-73
2023/12/29 01:02:59;;;;;;;10.48;2.88;;;;;;;8.93;100.00;100654.03;4994925;28;20110;-79
2023/12/29 01:05:24;;;;;;;7.75;2.85;;;;;;;8.62;100.00;100644.00;5003538;28;20041;-78
2023/12/29 01:07:49;;;;;;;11.88;3.10;;;;;;;8.31;100.00;100649.78;5003722;28;20030;-79
2023/12/29 01:10:15;;;;;;;9.20;2.97;;;;;;;8.19;100.00;100642.38;5003078;28;20037;-80
2023/12/29 01:12:40;;;;;;;11.73;2.90;;;;;;;7.99;100.00;100648.56;5003580;28;20049;-84
2023/12/29 01:15:06;;;;;;;13.30;3.53;;;;;;;7.89;100.00;100656.03;5001654;28;20057;-83
2023/12/29 01:17:32;;;;;;;14.00;3.65;;;;;;;7.77;100.00;100640.66;4981165;28;20056;-81
2023/12/29 01:19:57;;;;;;;9.45;3.28;;;;;;;7.74;100.00;100651.41;5002796;28;20479;-79
2023/12/29 01:22:22;;;;;;;16.55;3.50;;;;;;;7.70;100.00;100655.09;5003070;28;20515;-80
2023/12/29 01:24:48;;;;;;;14.15;3.45;;;;;;;7.54;100.00;100630.19;4985980;28;20124;-80
2023/12/29 01:27:13;;;;;;;14.43;4.53;;;;;;;7.61;100.00;100655.50;5004632;28;20606;-79
2023/12/29 01:29:39;;;;;;;10.93;3.20;;;;;;;7.47;100.00;100635.72;5003113;28;20048;-79
2023/12/29 01:32:07;;;;;;;11.68;4.00;;;;;;;7.52;100.00;100658.50;5001903;28;20545;-78
2023/12/29 01:34:33;;;;;;;11.82;3.72;;;;;;;7.50;100.00;100661.22;5003236;28;20065;-78
2023/12/29 01:36:59;;;;;;;12.90;4.03;;;;;;;7.37;100.00;100626.44;5003860;28;20559;-78
2023/12/29 01:39:25;;;;;;;12.43;4.28;;;;;;;7.32;100.00;100631.06;5001390;28;20141;-79
2023/12/29 01:41:50;;;;;;;15.10;4.22;;;;;;;7.44;100.00;100662.34;5003786;28;20038;-80
2023/12/29 01:44:20;;;;;;;10.85;3.78;;;;;;;7.42;100.00;100640.34;5002449;28;20363;-78
2023/12/29 01:46:46;;;;;;;13.70;3.88;;;;;;;7.43;100.00;100646.50;5000711;28;20065;-80
2023/12/29 01:49:15;;;;;;;12.93;3.67;;;;;;;7.22;100.00;100604.09;5004654;28;20503;-79
2023/12/29 01:51:42;;;;;;;17.25;4.13;;;;;;;7.41;100.00;100641.28;4997664;28;20050;-78
2023/12/29 01:54:08;;;;;;;12.02;3.97;;;;;;;7.39;100.00;100637.81;5005419;28;20042;-78
2023/12/29 01:56:33;;;;;;;14.80;4.38;;;;;;;7.33;100.00;100621.34;5003381;28;20045;-80
2023/12/29 01:58:58;;;;;;;13.07;4.25;;;;;;;7.33;100.00;100608.97;5002009;28;20030;-77
2023/12/29 02:01:24;;;;;;;15.43;4.80;;;;;;;7.39;100.00;100629.00;5002351;28;20487;-79
2023/12/29 02:03:49;;;;;;;17.75;4.68;;;;;;;7.40;100.00;100617.53;5004266;28;20468;-78
2023/12/29 02:06:17;;;;;;;15.07;4.20;;;;;;;7.34;100.00;100621.25;5001201;28;20377;-79
2023/12/29 02:08:42;;;;;;;13.55;4.88;;;;;;;7.36;100.00;100624.72;5001960;28;20053;-80
2023/12/29 02:11:08;;;;;;;14.02;4.32;;;;;;;7.36;100.00;100627.38;5001705;28;20479;-81
2023/12/29 02:13:33;;;;;;;13.73;4.20;;;;;;;7.34;100.00;100607.16;4997111;28;20044;-77
2023/12/29 02:16:07;;;;;;;14.20;3.85;;;;;;;7.36;100.00;100622.06;5001234;28;20048;-79
2023/12/29 02:18:34;;;;;;;;;;;;;;;7.42;100.00;100629.75;4981316;28;20496;-80
2023/12/29 02:20:59;;;;;;;11.70;3.55;;;;;;;7.40;100.00;100631.63;5001535;28;20149;-80
2023/12/29 02:23:24;;;;;;;12.82;3.80;;;;;;;7.42;100.00;100632.41;5001507;28;20482;-80
2023/12/29 02:25:54;;;;;;;16.67;3.70;;;;;;;7.32;100.00;100628.41;4994979;28;20476;-77
2023/12/29 02:28:25;;;;;;;14.13;3.80;;;;;;;7.38;100.00;100637.88;4999896;28;20048;-81
2023/12/29 02:31:07;;;;;;;9.80;3.53;;;;;;;7.44;100.00;100625.28;4997038;28;20128;-81
2023/12/29 02:33:40;;;;;;;10.93;3.58;;;;;;;7.41;100.00;100633.34;4997027;28;20040;-82
2023/12/29 02:36:07;;;;;;;15.25;4.05;;;;;;;7.34;100.00;100612.47;5001721;28;20045;-81
2023/12/29 02:38:33;;;;;;;12.18;3.42;;;;;;;7.36;100.00;100614.13;5002484;28;20100;-80
2023/12/29 02:40:59;;;;;;;11.30;3.10;;;;;;;7.49;100.00;100620.63;5000918;28;20120;-79
2023/12/29 02:43:24;;;;;;;11.65;3.10;;;;;;;7.49;100.00;100620.63;5001929;28;20576;-79
2023/12/29 02:45:50;;;;;;;9.13;3.05;;;;;;;7.53;100.00;100609.94;4997196;28;20040;-80
2023/12/29 02:48:15;;;;;;;8.52;3.38;;;;;;;7.56;100.00;100615.94;5004405;28;20559;-78
2023/12/29 02:50:40;;;;;;;13.55;3.38;;;;;;;7.59;100.00;100601.72;5003925;28;20130;-80
2023/12/29 02:53:06;;;;;;;9.73;2.92;;;;;;;7.67;100.00;100618.13;5008181;28;20045;-77
2023/12/29 02:55:32;;;;;;;9.50;3.40;;;;;;;7.69;100.00;100622.47;5002669;28;20093;-80
2023/12/29 02:57:57;;;;;;;14.27;3.45;;;;;;;7.71;100.00;100630.31;5002597;28;20057;-79
2023/12/29 03:00:22;;;;;;;13.93;4.18;;;;;;;7.73;100.00;100620.50;5002071;28;20040;-79
2023/12/29 03:02:48;;;;;;;10.27;3.47;;;;;;;7.70;100.00;100628.63;5002865;28;20042;-79
2023/12/29 03:05:14;;;;;;;12.57;4.07;;;;;;;7.77;100.00;100626.53;5002900;28;20045;-79
2023/12/29 03:07:40;;;;;;;12.73;3.58;;;;;;;7.76;100.00;100617.75;4998904;28;20050;-79
2023/12/29 03:10:06;;;;;;;13.40;3.63;;;;;;;7.78;100.00;100610.59;5004670;28;20169;-79
2023/12/29 03:12:32;;;;;;;8.95;3.38;;;;;;;7.78;100.00;100631.81;5005133;28;20037;-80
2023/12/29 03:14:57;;;;;;;7.85;2.90;;;;;;;7.81;100.00;100647.53;5000870;28;20033;-79
2023/12/29 03:17:23;;;;;;;9.60;3.22;;;;;;;7.81;100.00;100605.16;5000757;28;20041;-78
2023/12/29 03:19:48;;;;;;;10.98;2.90;;;;;;;7.79;100.00;100609.66;5004413;28;20034;-77
2023/12/29 03:22:13;;;;;;;11.32;3.20;;;;;;;7.70;100.00;100596.81;5004639;28;20145;-79
2023/12/29 03:24:41;;;;;;;12.70;3.33;;;;;;;7.73;100.00;100607.25;5004201;28;20054;-75
2023/12/29 03:27:06;;;;;;;8.63;2.90;;;;;;;7.68;100.00;100596.00;5002783;28;20045;-75
2023/12/29 03:29:31;;;;;;;11.40;3.35;;;;;;;7.72;100.00;100614.34;5004223;28;20458;-79
2023/12/29 03:31:57;;;;;;;9.15;2.90;;;;;;;7.80;100.00;100611.38;5003662;28;20054;-78
2023/12/29 03:34:22;;;;;;;10.48;3.40;;;;;;;7.83;100.00;100608.59;5004665;28;20112;-76
2023/12/29 03:36:47;;;;;;;12.75;3.75;;;;;;;7.91;100.00;100613.59;5003322;28;20484;-78
2023/12/29 03:39:13;;;;;;;10.80;3.72;;;;;;;7.91;100.00;100618.88;5004564;28;20089;-78
2023/12/29 03:41:38;;;;;;;15.48;3.83;;;;;;;7.96;100.00;100617.75;5003937;28;20567;-76
2023/12/29 03:44:05;;;;;;;9.45;3.10;;;;;;;7.99;100.00;100630.00;4997099;28;20417;-79
2023/12/29 03:46:31;;;;;;;9.00;3.17;;;;;;;8.01;100.00;100619.34;4993367;28;20049;-78
2023/12/29 03:48:57;;;;;;;7.40;2.83;;;;;;;8.08;100.00;100619.00;4982482;28;20562;-80
2023/12/29 03:51:22;;;;;;;10.93;2.83;;;;;;;7.97;100.00;100597.41;5003542;28;20045;-76
2023/12/29 03:53:48;;;;;;;8.70;2.97;;;;;;;8.06;100.00;100612.03;5005793;28;20572;-78
2023/12/29 03:56:18;;;;;;;6.78;2.55;;;;;;;8.02;100.00;100584.81;5003607;28;20026;-78
2023/12/29 03:58:47;;;;;;;10.40;3.13;;;;;;;8.06;100.00;100598.78;5002954;28;20033;-78
2023/12/29 04:01:17;;;;;;;7.05;2.53;;;;;;;8.16;100.00;100608.06;5003080;28;20600;-78
2023/12/29 04:03:43;;;;;;;11.48;3.58;;;;;;;8.18;100.00;100598.22;5005207;28;20044;-76
2023/12/29 04:06:11;;;;;;;9.88;3.10;;;;;;;8.13;100.00;100594.94;5002866;28;20107;-76
2023/12/29 04:08:40;;;;;;;12.40;3.60;;;;;;;8.11;100.00;100580.88;5003565;28;20052;-76
2023/12/29 04:11:06;;;;;;;11.30;2.92;;;;;;;8.23;100.00;100598.88;5004382;28;20069;-79
2023/12/29 04:13:31;;;;;;;9.07;3.13;;;;;;;8.30;100.00;100610.09;5005723;28;20066;-77
2023/12/29 04:15:57;;;;;;;12.48;3.05;;;;;;;8.34;100.00;100601.91;4985107;28;20041;-78
2023/12/29 04:18:23;;;;;;;9.98;2.88;;;;;;;8.43;100.00;100616.59;5000627;28;20057;-79
2023/12/29 04:20:49;;;;;;;10.45;3.28;;;;;;;8.43;100.00;100611.28;5004231;28;20045;-79
2023/12/29 04:23:15;;;;;;;8.48;2.75;;;;;;;8.50;100.00;100588.84;5003809;28;20037;-79
2023/12/29 04:25:40;;;;;;;8.43;2.70;;;;;;;8.48;100.00;100598.66;4972007;28;20045;-79
2023/12/29 04:28:07;;;;;;;10.48;2.88;;;;;;;8.53;100.00;100604.63;4983470;28;20042;-77
2023/12/29 04:30:33;;;;;;;13.90;3.22;;;;;;;8.45;100.00;100599.69;4983532;28;20567;-76
2023/12/29 04:32:58;;;;;;;10.90;3.00;;;;;;;8.53;100.00;100595.78;4983009;28;20119;-76
2023/12/29 04:35:23;;;;;;;14.40;3.13;;;;;;;8.53;100.00;100603.75;4982716;28;20038;-77
2023/12/29 04:37:49;;;;;;;13.27;3.30;;;;;;;8.50;100.00;100588.00;4982839;28;20376;-77
2023/12/29 04:40:15;;;;;;;10.48;3.03;;;;;;;8.47;100.00;100592.50;4964986;28;20400;-76
2023/12/29 04:42:40;;;;;;;14.35;3.33;;;;;;;8.54;100.00;100602.84;4983510;28;20027;-78
2023/12/29 04:45:06;;;;;;;8.98;3.15;;;;;;;8.45;100.00;100593.53;4966319;28;20046;-80
2023/12/29 04:47:32;;;;;;;11.45;3.60;;;;;;;8.51;100.00;100595.03;4980828;28;20178;-78
2023/12/29 04:49:57;;;;;;;13.18;3.45;;;;;;;8.47;100.00;100599.59;4962028;28;20125;-78
2023/12/29 04:52:23;;;;;;;10.43;3.08;;;;;;;8.46;100.00;100601.41;4983593;28;20050;-76
2023/12/29 04:54:48;;;;;;;9.55;3.88;;;;;;;8.45;100.00;100591.72;4982575;28;20228;-80
2023/12/29 04:57:14;;;;;;;10.23;2.90;;;;;;;8.32;100.00;100582.59;4984217;28;20156;-77
2023/12/29 04:59:39;;;;;;;9.80;3.38;;;;;;;8.42;100.00;100597.16;4982730;28;20054;-76
2023/12/29 05:02:05;;;;;;;11.75;3.33;;;;;;;8.33;100.00;100580.78;4981275;28;20098;-79
2023/12/29 05:04:30;;;;;;;10.85;3.55;;;;;;;8.45;100.00;100612.94;4982535;28;20459;-78
2023/12/29 05:06:55;;;;;;;8.98;2.65;;;;;;;8.49;100.00;100600.41;4983969;28;20034;-79
2023/12/29 05:09:21;;;;;;;8.80;2.85;;;;;;;8.51;100.00;100610.94;4982050;28;20117;-79
2023/12/29 05:11:46;;;;;;;11.95;3.50;;;;;;;8.44;100.00;100605.94;4983378;28;20453;-78
2023/12/29 05:14:12;;;;;;;12.32;3.50;;;;;;;8.51;100.00;100613.59;4983421;28;20521;-76
2023/12/29 05:16:37;;;;;;;12.65;3.28;;;;;;;8.35;100.00;100582.41;4979257;28;20049;-79
2023/12/29 05:19:02;;;;;;;12.20;3.65;;;;;;;8.42;100.00;100597.16;4983637;28;20057;-79
2023/12/29 05:21:28;;;;;;;15.30;3.88;;;;;;;8.45;100.00;100591.72;4983972;28;20745;-78
2023/12/29 05:23:53;;;;;;;8.38;3.22;;;;;;;8.47;100.00;100599.59;4983428;28;20148;-78
2023/12/29 05:26:18;;;;;;;9.05;3.53;;;;;;;8.51;100.00;100600.31;5002739;28;20610;-80
2023/12/29 05:28:44;;;;;;;12.10;3.55;;;;;;;8.47;100.00;100618.16;5002635;28;20034;-78
2023/12/29 05:31:10;;;;;;;11.52;3.70;;;;;;;8.47;100.00;100605.75;5000906;28;20264;-76
2023/12/29 05:33:35;;;;;;;8.98;2.90;;;;;;;8.58;100.00;100609.72;5002291;28;20038;-76
2023/12/29 05:36:07;;;;;;;11.75;3.63;;;;;;;8.59;100.00;100604.34;5001765;28;20519;-77
2023/12/29 05:38:34;;;;;;;7.20;2.90;;;;;;;8.56;100.00;100608.91;4997235;28;20033;-76
2023/12/29 05:41:01;;;;;;;10.60;3.42;;;;;;;8.59;100.00;100587.56;5001348;28;20581;-80
2023/12/29 05:43:26;;;;;;;11.95;3.13;;;;;;;8.60;100.00;100589.28;5001163;28;20041;-79
2023/12/29 05:45:52;;;;;;;12.40;3.10;;;;;;;8.58;100.00;100586.72;5000875;28;20037;-79
2023/12/29 05:48:17;;;;;;;11.90;3.20;;;;;;;8.57;100.00;100586.75;4997865;28;20038;-76
2023/12/29 05:50:43;;;;;;;10.20;3.10;;;;;;;8.60;100.00;100591.94;5001113;28;20143;-77
2023/12/29 05:53:08;;;;;;;10.15;2.97;;;;;;;8.61;100.00;100597.19;5002518;28;20034;-77
2023/12/29 05:55:33;;;;;;;11.30;3.42;;;;;;;8.59;100.00;100585.78;5001352;28;20136;-78
2023/12/29 05:57:59;;;;;;;9.80;3.33;;;;;;;8.59;100.00;100588.41;5001063;28;20582;-78
2023/12/29 06:00:24;;;;;;;7.88;2.63;;;;;;;8.58;100.00;100586.72;5001412;28;20066;-80
2023/12/29 06:02:50;;;;;;;11.82;2.92;;;;;;;8.64;100.00;100585.56;5001293;28;20085;-78
2023/12/29 06:05:15;;;;;;;12.75;3.22;;;;;;;8.62;100.00;100587.44;5001607;28;20041;-78
2023/12/29 06:07:41;;;;;;;10.45;3.10;;;;;;;8.60;100.00;100576.00;5000931;28;20036;-76
2023/12/29 06:10:08;;;;;;;9.48;2.90;;;;;;;8.64;100.00;100578.44;5001966;28;20038;-79
2023/12/29 06:12:33;;;;;;;11.02;3.00;;;;;;;8.60;100.00;100568.06;5001117;28;20030;-79
2023/12/29 06:14:58;;;;;;;12.20;3.22;;;;;;;8.57;100.00;100555.81;5002149;28;20198;-79
2023/12/29 06:17:24;;;;;;;11.43;3.17;;;;;;;8.60;100.00;100578.66;4997304;28;20042;-79
2023/12/29 06:19:49;;;;;;;8.27;2.85;;;;;;;8.54;100.00;100574.53;5000580;28;20492;-78
2023/12/29 06:22:15;;;;;;;12.85;3.53;;;;;;;8.45;100.00;100583.78;5003868;28;20508;-78
2023/12/29 06:24:41;;;;;;;9.23;3.00;;;;;;;8.30;100.00;100563.22;5005498;28;20120;-76
2023/12/29 06:27:12;;;;;;;9.30;2.85;;;;;;;8.47;100.00;100568.63;4989849;28;20038;-79
2023/12/29 06:29:38;;;;;;;11.85;3.17;;;;;;;8.37;100.00;100556.75;5005690;28;20586;-78
2023/12/29 06:32:04;;;;;;;9.95;3.45;;;;;;;8.37;100.00;100577.97;4982503;28;20125;-76
2023/12/29 06:34:29;;;;;;;8.10;3.05;;;;;;;8.39;100.00;100581.38;5005222;28;20334;-78
2023/12/29 06:36:55;;;;;;;8.65;3.03;;;;;;;8.37;100.00;100587.72;5010863;28;20042;-79
2023/12/29 06:39:20;;;;;;;9.82;3.05;;;;;;;8.37;100.00;100583.25;5005457;28;20137;-80
2023/12/29 06:41:46;;;;;;;6.07;2.25;;;;;;;8.48;100.00;100588.06;5004524;28;20500;-79
2023/12/29 06:44:11;;;;;;;8.25;2.60;;;;;;;8.43;100.00;100579.44;5004804;28;20469;-77
2023/12/29 06:46:37;;;;;;;11.80;3.08;;;;;;;8.41;100.00;100582.19;4986030;28;20575;-78
2023/12/29 06:49:03;;;;;;;12.25;3.80;;;;;;;8.46;100.00;100598.75;4986787;28;20554;-77
2023/12/29 06:51:28;;;;;;;10.98;3.25;;;;;;;8.40;100.00;100595.50;5003872;28;20057;-78
2023/12/29 06:53:54;;;;;;;7.50;2.72;;;;;;;8.44;100.00;100592.66;5005016;28;20038;-78
2023/12/29 06:56:20;;;;;;;11.45;2.75;;;;;;;8.47;100.00;100568.63;5003046;28;20034;-78
2023/12/29 06:58:46;;;;;;;11.55;2.72;;;;;;;8.47;100.00;100576.59;5004275;28;20453;-79
2023/12/29 07:01:11;;;;;;;7.78;2.97;;;;;;;8.46;100.00;100574.88;5001721;28;20030;-78
2023/12/29 07:03:37;;;;;;;11.02;3.22;;;;;;;8.48;100.00;100575.69;5003351;28;20097;-78
2023/12/29 07:06:02;;;;;;;10.65;3.25;;;;;;;8.42;100.00;100567.13;5003456;28;20059;-75
2023/12/29 07:08:28;;;;;;;12.60;3.25;;;;;;;8.38;100.00;100552.28;5002997;28;20397;-76
2023/12/29 07:10:54;;;;;;;11.02;3.05;;;;;;;8.47;100.00;100555.38;5004667;28;20034;-76
2023/12/29 07:13:19;;;;;;;8.70;2.83;;;;;;;8.50;100.00;100567.63;5002277;28;20077;-80
2023/12/29 07:15:46;;;;;;;9.85;2.55;;;;;;;8.37;100.00;100548.78;5002846;28;20042;-80
2023/12/29 07:18:12;;;;;;;12.98;4.45;;;;;;;8.50;100.00;100561.47;4999193;28;20089;-80
2023/12/29 07:20:37;;;;;;;12.77;3.28;;;;;;;8.47;100.00;100562.47;5004729;28;20053;-81
2023/12/29 07:23:02;;;;;;;7.78;3.05;;;;;;;8.47;100.00;100573.06;5003555;28;20034;-77
2023/12/29 07:25:28;;;;;;;9.48;2.97;;;;;;;8.51;100.00;100587.91;5004064;28;20050;-78
2023/12/29 07:27:53;;;;;;;6.88;2.60;;;;;;;8.54;100.00;100581.63;5003777;28;20456;-76
2023/12/29 07:30:19;;;;;;;7.57;2.72;;;;;;;8.59;100.00;100575.16;4993398;28;20078;-79
2023/12/29 07:32:44;;;;;;;8.75;3.10;;;;;;;8.53;100.00;100574.56;4997278;28;20033;-78
2023/12/29 07:35:17;;;;;;;6.43;2.40;;;;;;;8.62;100.00;100568.88;5003193;28;20046;-76
2023/12/29 07:37:42;;;;;;;7.90;2.70;;;;;;;8.57;100.00;100565.53;5003145;28;20516;-80
2023/12/29 07:40:13;;;;;;;7.55;3.03;;;;;;;8.43;100.00;100555.59;5004493;28;20034;-78
2023/12/29 07:42:40;;;;;;;6.75;2.50;;;;;;;8.15;100.00;100498.50;4998055;28;20515;-81
2023/12/29 07:45:06;;;;;;;6.95;2.60;;;;;;;8.09;100.00;100490.81;5004070;28;20034;-76
2023/12/29 07:47:31;;;;;;;12.25;3.13;;;;;;;8.04;100.00;100516.69;4999666;28;20495;-81
2023/12/29 07:49:57;;;;;;;9.85;3.63;;;;;;;7.99;100.00;100547.84;5004525;28;20096;-77
2023/12/29 07:52:23;;;;;;;9.98;3.55;;;;;;;8.01;100.00;100545.13;5004432;28;20116;-84
2023/12/29 07:54:49;;;;;;;12.13;4.75;;;;;;;8.01;100.00;100548.63;5003419;28;20040;-80
2023/12/29 07:57:14;;;;;;;7.10;2.85;;;;;;;8.01;100.00;100553.06;5004020;28;20050;-82
2023/12/29 07:59:40;;;;;;;7.50;3.83;;;;;;;8.01;100.00;100545.97;5003376;28;20080;-79
2023/12/29 08:02:06;;;;;;;8.57;2.80;;;;;;;8.03;100.00;100541.47;4998681;28;21437;-78
2023/12/29 08:04:32;;;;;;;7.13;2.50;;;;;;;8.06;100.00;100565.19;4999600;28;20065;-79
2023/12/29 08:06:57;;;;;;;9.50;3.00;;;;;;;8.05;100.00;100559.97;4996429;28;20042;-74
2023/12/29 08:09:23;;;;;;;3.97;2.45;;;;;;;8.10;100.00;100584.47;5001596;28;20125;-78
2023/12/29 08:11:49;;;;;;;5.20;2.60;;;;;;;8.14;100.00;100575.44;4997071;28;20522;-73
2023/12/29 08:14:14;;;;;;;6.60;2.15;;;;;;;8.20;100.00;100593.75;4999093;28;20120;-77
2023/12/29 08:16:42;;;;;;;6.03;2.08;;;;;;;8.22;100.00;100599.81;5000118;28;20484;-80
2023/12/29 08:19:09;;;;;;;6.18;2.40;;;;;;;8.25;100.00;100581.13;5000457;28;20294;-75
2023/12/29 08:21:35;;;;;;;6.05;2.22;;;;;;;8.29;100.00;100595.97;5002368;28;20048;-75
2023/12/29 08:24:01;;;;;;;6.00;2.20;;;;;;;8.37;100.00;100606.28;5000585;28;20237;-75
2023/12/29 08:26:26;;;;;;;7.50;2.63;;;;;;;8.31;100.00;100586.13;5001827;28;20041;-79
2023/12/29 08:28:52;;;;;;;5.00;2.28;;;;;;;8.42;100.00;100598.97;5001682;28;20141;-75
2023/12/29 08:31:19;;;;;;;5.68;2.00;;;;;;;8.43;100.00;100601.53;5001199;28;20038;-79
2023/12/29 08:33:44;;;;;;;3.70;1.92;;;;;;;8.46;100.00;100590.78;5002733;28;20092;-78
2023/12/29 08:36:12;;;;;;;4.18;1.70;;;;;;;8.44;100.00;100582.06;5002359;28;20045;-75
2023/12/29 08:38:38;;;;;;;4.78;2.13;;;;;;;8.43;100.00;100590.91;5001899;28;20220;-77
2023/12/29 08:41:04;;;;;;;3.38;1.95;;;;;;;8.46;100.00;100593.44;5002686;28;20229;-76
2023/12/29 08:43:29;;;;;;;4.70;2.08;;;;;;;8.36;100.00;100576.22;5002249;28;20050;-77
2023/12/29 08:45:54;;;;;;;5.20;2.15;;;;;;;8.42;100.00;100593.66;5001493;28;20488;-77
2023/12/29 08:48:20;;;;;;;3.67;1.90;;;;;;;8.50;100.00;100598.59;5001008;28;20056;-77
2023/12/29 08:50:46;;;;;;;4.75;2.22;;;;;;;8.45;100.00;100598.81;5002545;28;20437;-76
2023/12/29 08:53:12;;;;;;;4.20;2.45;;;;;;;8.53;100.00;100611.72;5003992;28;20026;-74
2023/12/29 08:55:38;;;;;;;4.97;1.90;;;;;;;8.49;100.00;100592.44;5002619;28;20241;-75
2023/12/29 08:58:03;;;;;;;5.28;1.77;;;;;;;8.54;100.00;100632.03;4999167;28;20041;-78
2023/12/29 09:00:30;;;;;;;7.15;2.17;;;;;;;8.35;100.00;100619.53;5000501;28;20554;-78
2023/12/29 09:02:56;;;;;;;6.10;1.85;;;;;;;8.26;100.00;100622.63;4999865;28;20263;-81
2023/12/29 09:05:21;;;;;;;5.47;1.80;;;;;;;8.13;100.00;100624.94;5001716;28;20580;-76
2023/12/29 09:07:46;;;;;;;3.28;1.75;;;;;;;8.01;100.00;100611.38;5002152;28;20052;-79
2023/12/29 09:10:12;;;;;;;3.60;1.65;;;;;;;7.98;100.00;100610.59;4999852;28;20041;-75
2023/12/29 09:12:38;;;;;;;3.78;1.50;;;;;;;7.94;100.00;100603.72;5001245;28;20073;-76
2023/12/29 09:15:05;;;;;;;4.05;1.67;;;;;;;7.93;100.00;100612.56;5001762;28;20061;-78
2023/12/29 09:17:31;;;;;;;3.13;1.60;;;;;;;7.92;100.00;100616.16;4997886;28;20804;-78
2023/12/29 09:19:56;;;;;;;2.90;1.60;;;;;;;7.89;100.00;100613.63;5002254;28;20038;-76
2023/12/29 09:22:22;;;;;;;3.78;2.08;;;;;;;7.88;100.00;100611.91;5002049;28;20042;-81
2023/12/29 09:24:47;;;;;;;5.00;1.98;;;;;;;7.90;100.00;100611.84;5000731;28;20088;-80
2023/12/29 09:27:13;;;;;;;5.00;1.67;;;;;;;7.87;100.00;100615.50;5001739;28;20034;-76
2023/12/29 09:29:39;;;;;;;2.58;1.50;;;;;;;7.94;100.00;100630.22;4994870;28;20116;-81
2023/12/29 09:32:05;;;;;;;5.80;2.30;;;;;;;7.96;100.00;100611.59;4997739;28;20046;-78
2023/12/29 09:34:31;;;;;;;4.28;1.80;;;;;;;7.90;100.00;100614.50;5001672;28;20786;-79
2023/12/29 09:36:56;;;;;;;3.88;1.65;;;;;;;8.01;100.00;100611.38;4998807;28;20074;-76
2023/12/29 09:39:21;;;;;;;4.40;1.75;;;;;;;8.05;100.00;100628.88;5001573;28;20038;-79
2023/12/29 09:41:51;;;;;;;2.95;1.67;;;;;;;8.11;100.00;100624.19;5001084;28;20165;-77
2023/12/29 09:44:19;;;;;;;3.58;1.90;;;;;;;8.19;100.00;100621.16;4981234;28;20088;-78
2023/12/29 09:46:49;;;;;;;2.67;1.50;;;;;;;8.27;100.00;100619.03;5001783;28;20140;-78
2023/12/29 09:49:16;;;;;;;3.28;1.75;;;;;;;8.34;100.00;100636.41;5001888;28;20091;-77
2023/12/29 09:51:43;;;;;;;2.00;1.27;;;;;;;8.42;100.00;100641.41;5002213;28;20049;-74
2023/12/29 09:54:10;;;;;;;2.55;1.52;;;;;;;8.50;100.00;100628.66;5009042;28;20121;-75
2023/12/29 09:56:35;;;;;;;2.65;1.38;;;;;;;8.55;100.00;100645.22;5002111;28;20033;-75
2023/12/29 09:59:03;;;;;;;4.55;1.80;;;;;;;8.53;100.00;100631.16;5006154;28;20058;-77
2023/12/29 10:01:30;;;;;;;2.65;1.40;;;;;;;8.61;100.00;100630.78;5005405;28;20403;-77
2023/12/29 10:03:56;;;;;;;2.15;1.30;;;;;;;8.62;100.00;100627.22;5005412;28;20040;-79
2023/12/29 10:06:25;;;;;;;2.92;1.40;;;;;;;8.55;100.00;100607.22;5003797;28;20034;-75
2023/12/29 10:08:51;;;;;;;2.75;1.60;;;;;;;8.64;100.00;100625.34;5000980;28;20057;-80
2023/12/29 10:11:21;;;;;;;3.35;1.67;;;;;;;8.71;100.00;100616.19;5002759;28;20065;-76
2023/12/29 10:13:49;;;;;;;2.03;1.30;;;;;;;8.77;100.00;100623.84;5002550;28;20108;-76
2023/12/29 10:16:38;;;;;;;3.10;1.27;;;;;;;8.79;100.00;100626.44;5001876;28;20034;-74
2023/12/29 10:19:42;;;;;;;2.13;1.30;;;;;;;8.85;100.00;100632.31;4992474;28;20061;-75
2023/12/29 10:22:13;;;;;;;2.55;1.30;;;;;;;8.86;100.00;100643.78;5005766;28;20042;-79
2023/12/29 10:24:39;;;;;;;1.70;1.23;;;;;;;8.89;100.00;100639.19;4987876;28;20050;-78
2023/12/29 10:27:04;;;;;;;2.00;1.20;;;;;;;8.85;100.00;100636.75;5003723;28;20416;-75
2023/12/29 10:29:31;;;;;;;2.30;1.65;;;;;;;8.91;100.00;100647.09;4999423;28;20042;-78
2023/12/29 10:31:56;;;;;;;2.15;1.38;;;;;;;8.95;100.00;100632.75;5004288;28;20536;-78
2023/12/29 10:34:28;;;;;;;5.30;1.70;;;;;;;8.93;100.00;100630.16;5004874;28;20116;-76
2023/12/29 10:36:55;;;;;;;3.30;1.60;;;;;;;9.04;100.00;100655.34;5005460;28;20125;-74
2023/12/29 10:39:20;;;;;;;2.35;1.55;;;;;;;9.06;100.00;100640.19;5002669;28;20030;-78
2023/12/29 10:41:45;;;;;;;3.30;1.88;;;;;;;9.13;100.00;100650.44;5004428;28;20280;-74
2023/12/29 10:44:12;;;;;;;3.72;1.77;;;;;;;9.15;100.00;100653.00;5002855;28;20048;-77
2023/12/29 10:46:37;;;;;;;3.42;1.58;;;;;;;9.21;100.00;100661.56;5003002;28;20042;-75
2023/12/29 10:49:18;;;;;;;4.88;2.03;;;;;;;9.27;100.00;100659.53;5004298;28;20500;-79
2023/12/29 10:51:43;;;;;;;4.40;1.90;;;;;;;9.29;100.00;100663.00;5005072;28;20113;-78
2023/12/29 10:54:20;;;;;;;3.95;1.60;;;;;;;9.28;100.00;100659.47;5004775;28;20157;-76
2023/12/29 10:56:45;;;;;;;4.03;1.67;;;;;;;9.30;100.00;100654.94;5005042;28;20037;-75
2023/12/29 10:59:12;;;;;;;4.70;2.10;;;;;;;9.36;100.00;100659.09;5005679;28;20293;-77
2023/12/29 11:01:37;;;;;;;4.10;1.92;;;;;;;9.36;100.00;100648.47;5004965;28;20038;-78
2023/12/29 11:04:05;;;;;;;5.72;1.95;;;;;;;9.38;100.00;100643.94;5004274;28;20041;-78
2023/12/29 11:06:41;;;;;;;3.80;2.10;;;;;;;9.35;100.00;100639.63;4985592;28;20029;-78
2023/12/29 11:09:06;;;;;;;4.43;1.90;;;;;;;9.45;100.00;100646.22;5003076;28;20037;-79
2023/12/29 11:11:34;;;;;;;4.82;2.17;;;;;;;9.41;100.00;100647.31;5003442;28;20034;-76
2023/12/29 11:14:00;;;;;;;3.75;1.67;;;;;;;9.44;100.00;100655.13;5000004;28;20132;-78
2023/12/29 11:16:26;;;;;;;4.05;1.60;;;;;;;9.42;100.00;100650.84;5004702;28;20520;-79
2023/12/29 11:18:54;;;;;;;4.43;1.63;;;;;;;9.37;100.00;100650.22;4993698;28;20943;-77